createdAt,value
2018-02-27T00:00:35.876Z,-7.23
2018-02-27T00:01:45.938Z,-7.23
2018-02-27T00:02:55.950Z,-7.2
2018-02-27T00:04:05.669Z,-7.18
2018-02-27T00:05:15.393Z,-7.18
2018-02-27T00:06:25.117Z,-7.21
2018-02-27T00:07:34.832Z,-7.28
2018-02-27T00:08:44.821Z,-7.24
2018-02-27T00:09:54.811Z,-7.21
2018-02-27T00:11:04.799Z,-7.25
2018-02-27T00:12:14.526Z,-7.23
2018-02-27T00:13:24.613Z,-7.24
2018-02-27T00:14:34.341Z,-7.21
2018-02-27T00:15:44.336Z,-7.21
2018-02-27T00:16:54.353Z,-7.21
2018-02-27T00:18:04.078Z,-7.24
2018-02-27T00:19:14.076Z,-7.28
2018-02-27T00:20:24.062Z,-7.34
2018-02-27T00:21:34.059Z,-7.39
2018-02-27T00:22:43.784Z,-7.39
2018-02-27T00:23:53.776Z,-7.41
2018-02-27T00:25:03.503Z,-7.36
2018-02-27T00:26:12.954Z,-7.35
2018-02-27T00:27:22.938Z,-7.45
2018-02-27T00:28:32.663Z,-7.41
2018-02-27T00:29:42.383Z,-7.41
2018-02-27T00:30:52.373Z,-7.53
2018-02-27T00:32:01.825Z,-7.52
2018-02-27T00:33:11.812Z,-7.44
2018-02-27T00:34:21.803Z,-7.46
2018-02-27T00:35:31.254Z,-7.5
2018-02-27T00:36:41.239Z,-7.39
2018-02-27T00:37:51.236Z,-7.42
2018-02-27T00:39:00.998Z,-7.48
2018-02-27T00:40:10.731Z,-7.64
2018-02-27T00:41:20.446Z,-7.52
2018-02-27T00:42:30.161Z,-7.56
2018-02-27T00:43:39.883Z,-7.57
2018-02-27T00:44:49.610Z,-7.6
2018-02-27T00:45:59.601Z,-7.57
2018-02-27T00:47:09.592Z,-7.56
2018-02-27T00:48:19.308Z,-7.52
2018-02-27T00:49:29.030Z,-7.53
2018-02-27T00:50:38.752Z,-7.6
2018-02-27T00:51:48.749Z,-7.55
2018-02-27T00:52:58.736Z,-7.53
2018-02-27T00:54:08.457Z,-7.6
2018-02-27T00:55:18.175Z,-7.57
2018-02-27T00:56:28.162Z,-7.67
2018-02-27T00:57:38.148Z,-7.62
2018-02-27T00:58:48.132Z,-7.71
2018-02-27T00:59:58.124Z,-7.73
2018-02-27T01:01:07.856Z,-7.71
2018-02-27T01:02:17.855Z,-7.73
2018-02-27T01:03:27.843Z,-7.7
2018-02-27T01:04:37.834Z,-7.73
2018-02-27T01:05:47.813Z,-7.74
2018-02-27T01:06:57.265Z,-7.8
2018-02-27T01:08:06.983Z,-7.84
2018-02-27T01:09:16.978Z,-7.85
2018-02-27T01:10:26.963Z,-7.89
2018-02-27T01:11:36.944Z,-7.91
2018-02-27T01:12:46.927Z,-7.91
2018-02-27T01:13:56.646Z,-7.92
2018-02-27T01:15:06.630Z,-7.94
2018-02-27T01:16:16.615Z,-7.99
2018-02-27T01:17:26.348Z,-7.94
2018-02-27T01:18:36.065Z,-7.96
2018-02-27T01:19:46.058Z,-7.96
2018-02-27T01:20:56.042Z,-8.11
2018-02-27T01:22:05.232Z,-8.05
2018-02-27T01:23:15.213Z,-7.98
2018-02-27T01:24:25.192Z,-8.08
2018-02-27T01:25:34.913Z,-7.99
2018-02-27T01:26:44.637Z,-7.99
2018-02-27T01:27:54.625Z,-8.1
2018-02-27T01:29:04.616Z,-8.05
2018-02-27T01:30:14.333Z,-7.98
2018-02-27T01:31:24.053Z,-8.02
2018-02-27T01:32:33.498Z,-7.98
2018-02-27T01:33:43.491Z,-8.05
2018-02-27T01:34:53.517Z,-7.98
2018-02-27T01:36:03.508Z,-7.98
2018-02-27T01:37:12.955Z,-7.99
2018-02-27T01:38:22.689Z,-7.95
2018-02-27T01:39:32.673Z,-7.96
2018-02-27T01:40:42.651Z,-7.96
2018-02-27T01:41:52.635Z,-7.94
2018-02-27T01:43:02.617Z,-7.94
2018-02-27T01:44:12.601Z,-7.96
2018-02-27T01:45:22.316Z,-7.99
2018-02-27T01:46:32.031Z,-7.91
2018-02-27T01:47:41.759Z,-7.92
2018-02-27T01:48:51.744Z,-7.96
2018-02-27T01:50:01.196Z,-7.96
2018-02-27T01:51:10.921Z,-7.96
2018-02-27T01:52:20.914Z,-7.94
2018-02-27T01:53:30.633Z,-8.02
2018-02-27T01:54:40.349Z,-7.98
2018-02-27T01:55:49.798Z,-8.02
2018-02-27T01:56:59.784Z,-7.99
2018-02-27T01:58:09.767Z,-8.03
2018-02-27T01:59:19.754Z,-7.95
2018-02-27T02:00:29.742Z,-8.05
2018-02-27T02:01:39.201Z,-7.94
2018-02-27T02:02:49.187Z,-7.96
2018-02-27T02:03:58.909Z,-7.99
2018-02-27T02:05:08.902Z,-7.89
2018-02-27T02:06:18.623Z,-7.89
2018-02-27T02:07:28.344Z,-7.83
2018-02-27T02:08:38.067Z,-7.84
2018-02-27T02:09:47.784Z,-7.85
2018-02-27T02:10:57.508Z,-7.75
2018-02-27T02:12:07.495Z,-7.74
2018-02-27T02:13:17.481Z,-7.77
2018-02-27T02:14:27.466Z,-7.67
2018-02-27T02:15:37.454Z,-7.73
2018-02-27T02:16:47.173Z,-7.73
2018-02-27T02:17:56.940Z,-7.59
2018-02-27T02:19:06.926Z,-7.74
2018-02-27T02:20:16.908Z,-7.74
2018-02-27T02:21:26.893Z,-7.56
2018-02-27T02:22:36.893Z,-7.56
2018-02-27T02:23:46.348Z,-7.66
2018-02-27T02:24:56.337Z,-7.6
2018-02-27T02:26:05.792Z,-7.63
2018-02-27T02:27:15.784Z,-7.64
2018-02-27T02:28:25.771Z,-7.7
2018-02-27T02:29:35.230Z,-7.56
2018-02-27T02:30:45.210Z,-7.74
2018-02-27T02:31:55.198Z,-7.67
2018-02-27T02:33:04.391Z,-7.7
2018-02-27T02:34:14.122Z,-7.73
2018-02-27T02:35:23.843Z,-7.71
2018-02-27T02:36:33.837Z,-7.78
2018-02-27T02:37:43.573Z,-7.85
2018-02-27T02:38:53.308Z,-7.75
2018-02-27T02:40:03.304Z,-7.84
2018-02-27T02:41:12.751Z,-7.91
2018-02-27T02:42:22.470Z,-7.92
2018-02-27T02:43:32.475Z,-7.95
2018-02-27T02:44:42.197Z,-7.96
2018-02-27T02:45:52.186Z,-7.89
2018-02-27T02:47:02.170Z,-7.95
2018-02-27T02:48:12.158Z,-7.94
2018-02-27T02:49:21.883Z,-7.99
2018-02-27T02:50:31.434Z,-8.11
2018-02-27T02:51:41.433Z,-8.11
2018-02-27T02:52:51.420Z,-8.23
2018-02-27T02:54:01.133Z,-8.17
2018-02-27T02:55:10.842Z,-8.23
2018-02-27T02:56:20.822Z,-8.21
2018-02-27T02:57:30.806Z,-8.17
2018-02-27T02:58:40.792Z,-8.23
2018-02-27T02:59:50.775Z,-8.26
2018-02-27T03:01:00.218Z,-8.29
2018-02-27T03:02:10.197Z,-8.35
2018-02-27T03:03:20.185Z,-8.42
2018-02-27T03:04:29.908Z,-8.35
2018-02-27T03:05:39.902Z,-8.36
2018-02-27T03:06:49.621Z,-8.34
2018-02-27T03:07:59.608Z,-8.29
2018-02-27T03:09:09.592Z,-8.36
2018-02-27T03:10:19.048Z,-8.46
2018-02-27T03:11:29.040Z,-8.41
2018-02-27T03:12:38.764Z,-8.41
2018-02-27T03:13:48.545Z,-8.38
2018-02-27T03:14:58.271Z,-8.41
2018-02-27T03:16:07.985Z,-8.42
2018-02-27T03:17:17.706Z,-8.44
2018-02-27T03:18:27.698Z,-8.46
2018-02-27T03:19:37.424Z,-8.47
2018-02-27T03:20:47.426Z,-8.42
2018-02-27T03:21:57.411Z,-8.41
2018-02-27T03:23:07.133Z,-8.46
2018-02-27T03:24:17.171Z,-8.41
2018-02-27T03:25:27.157Z,-8.42
2018-02-27T03:26:37.138Z,-8.42
2018-02-27T03:27:47.124Z,-8.44
2018-02-27T03:28:56.849Z,-8.46
2018-02-27T03:30:06.314Z,-8.52
2018-02-27T03:31:15.774Z,-8.39
2018-02-27T03:32:25.769Z,-8.42
2018-02-27T03:33:35.756Z,-8.44
2018-02-27T03:34:45.734Z,-8.41
2018-02-27T03:35:55.727Z,-8.39
2018-02-27T03:37:05.544Z,-8.44
2018-02-27T03:38:15.263Z,-8.38
2018-02-27T03:39:25.256Z,-8.36
2018-02-27T03:40:35.252Z,-8.34
2018-02-27T03:41:45.243Z,-8.35
2018-02-27T03:42:54.968Z,-8.36
2018-02-27T03:44:04.949Z,-8.41
2018-02-27T03:45:14.928Z,-8.38
2018-02-27T03:46:24.912Z,-8.32
2018-02-27T03:47:34.898Z,-8.36
2018-02-27T03:48:44.879Z,-8.36
2018-02-27T03:49:54.866Z,-8.42
2018-02-27T03:51:04.851Z,-8.47
2018-02-27T03:52:14.296Z,-8.44
2018-02-27T03:53:24.280Z,-8.42
2018-02-27T03:54:34.277Z,-8.44
2018-02-27T03:55:44.263Z,-8.42
2018-02-27T03:56:54.250Z,-8.44
2018-02-27T03:58:04.232Z,-8.41
2018-02-27T03:59:14.215Z,-8.44
2018-02-27T04:04:30.602Z,-8.39
2018-02-27T04:05:40.325Z,-8.46
2018-02-27T04:06:50.308Z,-8.39
2018-02-27T04:07:59.489Z,-8.41
2018-02-27T04:09:09.472Z,-8.42
2018-02-27T04:10:19.450Z,-8.42
2018-02-27T04:11:29.163Z,-8.46
2018-02-27T04:12:39.148Z,-8.44
2018-02-27T04:13:49.139Z,-8.41
2018-02-27T04:14:58.959Z,-8.42
2018-02-27T04:16:08.679Z,-8.44
2018-02-27T04:17:18.397Z,-8.39
2018-02-27T04:18:28.118Z,-8.41
2018-02-27T04:19:38.099Z,-8.36
2018-02-27T04:20:48.086Z,-8.46
2018-02-27T04:21:58.072Z,-8.41
2018-02-27T04:23:07.794Z,-8.41
2018-02-27T04:24:17.243Z,-8.39
2018-02-27T04:25:27.236Z,-8.44
2018-02-27T04:26:37.222Z,-8.42
2018-02-27T04:27:46.934Z,-8.41
2018-02-27T04:28:56.914Z,-8.38
2018-02-27T04:30:06.416Z,-8.46
2018-02-27T04:31:16.137Z,-8.47
2018-02-27T04:32:26.128Z,-8.44
2018-02-27T04:33:35.844Z,-8.47
2018-02-27T04:34:45.836Z,-8.42
2018-02-27T04:35:55.560Z,-8.46
2018-02-27T04:37:05.276Z,-8.36
2018-02-27T04:38:14.997Z,-8.35
2018-02-27T04:39:24.982Z,-8.31
2018-02-27T04:40:34.704Z,-8.38
2018-02-27T04:41:44.699Z,-8.35
2018-02-27T04:42:54.414Z,-8.36
2018-02-27T04:44:04.128Z,-8.35
2018-02-27T04:45:13.860Z,-8.35
2018-02-27T04:46:23.582Z,-8.36
2018-02-27T04:47:33.564Z,-8.39
2018-02-27T04:48:43.450Z,-8.36
2018-02-27T04:49:53.437Z,-8.36
2018-02-27T04:51:03.420Z,-8.42
2018-02-27T04:52:13.399Z,-8.42
2018-02-27T04:53:22.846Z,-8.49
2018-02-27T04:54:32.311Z,-8.5
2018-02-27T04:55:42.296Z,-8.54
2018-02-27T04:56:52.288Z,-8.52
2018-02-27T04:58:02.278Z,-8.6
2018-02-27T04:59:12.260Z,-8.59
2018-02-27T05:00:22.244Z,-8.6
2018-02-27T05:01:31.429Z,-8.74
2018-02-27T05:02:40.880Z,-8.65
2018-02-27T05:03:50.872Z,-8.73
2018-02-27T05:05:00.862Z,-8.78
2018-02-27T05:06:10.858Z,-8.85
2018-02-27T05:07:20.852Z,-8.77
2018-02-27T05:08:30.306Z,-8.86
2018-02-27T05:09:40.379Z,-8.77
2018-02-27T05:10:50.365Z,-8.85
2018-02-27T05:12:00.086Z,-8.92
2018-02-27T05:13:10.165Z,-8.89
2018-02-27T05:14:20.145Z,-8.85
2018-02-27T05:15:29.869Z,-9.02
2018-02-27T05:16:39.858Z,-8.96
2018-02-27T05:17:49.309Z,-8.94
2018-02-27T05:18:58.758Z,-8.98
2018-02-27T05:20:08.738Z,-8.86
2018-02-27T05:21:18.459Z,-8.86
2018-02-27T05:22:28.446Z,-8.94
2018-02-27T05:23:38.442Z,-9.03
2018-02-27T05:24:48.477Z,-8.99
2018-02-27T05:25:58.201Z,-8.98
2018-02-27T05:27:07.915Z,-9.02
2018-02-27T05:28:17.895Z,-9.03
2018-02-27T05:29:27.345Z,-9.04
2018-02-27T05:30:37.441Z,-9.03
2018-02-27T05:31:47.482Z,-9.04
2018-02-27T05:32:57.201Z,-9.07
2018-02-27T05:34:06.924Z,-9.07
2018-02-27T05:35:16.911Z,-9.04
2018-02-27T05:36:26.906Z,-9.02
2018-02-27T05:37:36.351Z,-9.06
2018-02-27T05:38:45.805Z,-9.02
2018-02-27T05:39:55.529Z,-9.03
2018-02-27T05:41:05.522Z,-8.99
2018-02-27T05:42:15.510Z,-9.03
2018-02-27T05:43:25.247Z,-8.95
2018-02-27T05:44:35.230Z,-8.92
2018-02-27T05:45:45.212Z,-9.04
2018-02-27T05:46:55.201Z,-8.92
2018-02-27T05:48:04.937Z,-9.07
2018-02-27T05:49:14.436Z,-8.99
2018-02-27T05:50:24.447Z,-9.16
2018-02-27T05:51:34.157Z,-9.28
2018-02-27T05:52:44.138Z,-9.28
2018-02-27T05:53:53.855Z,-9.31
2018-02-27T05:55:03.580Z,-9.41
2018-02-27T05:56:13.298Z,-9.53
2018-02-27T05:57:23.277Z,-9.85
2018-02-27T05:58:33.004Z,-10.03
2018-02-27T05:59:42.983Z,-10
2018-02-27T06:00:52.759Z,-10.14
2018-02-27T06:02:02.488Z,-10.15
2018-02-27T06:03:12.479Z,-10.12
2018-02-27T06:04:22.468Z,-10.18
2018-02-27T06:05:31.926Z,-10.06
2018-02-27T06:06:41.384Z,-10.12
2018-02-27T06:07:51.208Z,-10.14
2018-02-27T06:09:00.934Z,-10.1
2018-02-27T06:10:10.926Z,-10.09
2018-02-27T06:11:20.906Z,-10.02
2018-02-27T06:12:30.619Z,-10.07
2018-02-27T06:13:40.341Z,-10.24
2018-02-27T06:14:50.326Z,-10.34
2018-02-27T06:16:00.048Z,-10.36
2018-02-27T06:17:10.131Z,-10.36
2018-02-27T06:18:20.121Z,-10.31
2018-02-27T06:19:30.138Z,-10.18
2018-02-27T06:20:39.590Z,-10.24
2018-02-27T06:21:49.308Z,-10.25
2018-02-27T06:22:59.020Z,-10.23
2018-02-27T06:24:08.737Z,-10.2
2018-02-27T06:25:18.447Z,-10.14
2018-02-27T06:26:28.165Z,-10.06
2018-02-27T06:27:38.154Z,-10.18
2018-02-27T06:28:47.874Z,-10.05
2018-02-27T06:29:57.861Z,-10.03
2018-02-27T06:31:07.326Z,-10.02
2018-02-27T06:32:17.044Z,-10.06
2018-02-27T06:33:27.034Z,-9.92
2018-02-27T06:34:37.016Z,-9.73
2018-02-27T06:35:47.000Z,-9.81
2018-02-27T06:36:56.719Z,-9.73
2018-02-27T06:38:06.433Z,-9.68
2018-02-27T06:39:16.411Z,-9.68
2018-02-27T06:40:25.859Z,-9.74
2018-02-27T06:41:35.570Z,-9.63
2018-02-27T06:42:45.286Z,-9.58
2018-02-27T06:43:55.271Z,-9.55
2018-02-27T06:45:04.721Z,-9.49
2018-02-27T06:46:14.438Z,-9.52
2018-02-27T06:47:24.156Z,-9.47
2018-02-27T06:48:33.612Z,-9.34
2018-02-27T06:49:43.609Z,-9.47
2018-02-27T06:50:53.324Z,-9.31
2018-02-27T06:52:02.800Z,-9.35
2018-02-27T06:53:12.796Z,-9.33
2018-02-27T06:54:22.779Z,-9.34
2018-02-27T06:55:32.230Z,-9.28
2018-02-27T06:56:42.209Z,-9.33
2018-02-27T06:57:51.931Z,-9.28
2018-02-27T06:59:01.375Z,-9.25
2018-02-27T07:00:11.369Z,-9.31
2018-02-27T07:01:20.825Z,-9.27
2018-02-27T07:02:30.541Z,-9.17
2018-02-27T07:03:40.620Z,-9.17
2018-02-27T07:04:50.597Z,-9.07
2018-02-27T07:06:00.314Z,-9.07
2018-02-27T07:07:10.295Z,-9.04
2018-02-27T07:08:20.011Z,-9.04
2018-02-27T07:09:29.460Z,-8.89
2018-02-27T07:10:39.494Z,-8.92
2018-02-27T07:11:49.487Z,-8.96
2018-02-27T07:12:59.475Z,-9.02
2018-02-27T07:14:08.660Z,-8.94
2018-02-27T07:15:18.644Z,-8.99
2018-02-27T07:16:28.093Z,-8.96
2018-02-27T07:17:37.810Z,-8.95
2018-02-27T07:18:47.529Z,-8.88
2018-02-27T07:19:57.247Z,-8.95
2018-02-27T07:21:07.231Z,-8.94
2018-02-27T07:22:16.681Z,-8.91
2018-02-27T07:23:26.672Z,-8.94
2018-02-27T07:24:36.655Z,-8.91
2018-02-27T07:25:46.651Z,-8.86
2018-02-27T07:26:56.635Z,-8.84
2018-02-27T07:28:06.355Z,-8.84
2018-02-27T07:29:16.072Z,-8.8
2018-02-27T07:30:26.056Z,-8.86
2018-02-27T07:31:35.775Z,-8.8
2018-02-27T07:32:45.874Z,-8.73
2018-02-27T07:33:55.850Z,-8.74
2018-02-27T07:35:05.834Z,-8.73
2018-02-27T07:36:15.825Z,-8.71
2018-02-27T07:37:25.810Z,-8.59
2018-02-27T07:38:35.529Z,-8.62
2018-02-27T07:39:45.513Z,-8.41
2018-02-27T07:40:55.497Z,-8.46
2018-02-27T07:42:04.704Z,-8.34
2018-02-27T07:43:14.692Z,-8.36
2018-02-27T07:44:24.410Z,-8.38
2018-02-27T07:45:33.871Z,-8.28
2018-02-27T07:46:43.585Z,-8.23
2018-02-27T07:47:53.567Z,-8.14
2018-02-27T07:49:03.551Z,-8.15
2018-02-27T07:50:13.545Z,-8.28
2018-02-27T07:51:23.534Z,-8.26
2018-02-27T07:52:32.773Z,-8.2
2018-02-27T07:53:42.935Z,-8.2
2018-02-27T07:54:52.387Z,-8.24
2018-02-27T07:56:02.374Z,-8.17
2018-02-27T07:57:12.360Z,-8.24
2018-02-27T07:58:22.085Z,-8.11
2018-02-27T07:59:31.810Z,-8.07
2018-02-27T08:00:41.794Z,-8.11
2018-02-27T08:01:51.776Z,-8.02
2018-02-27T08:03:01.493Z,-7.99
2018-02-27T08:04:11.495Z,-7.95
2018-02-27T08:05:21.254Z,-7.94
2018-02-27T08:06:31.240Z,-7.91
2018-02-27T08:07:40.957Z,-7.8
2018-02-27T08:08:50.955Z,-7.74
2018-02-27T08:10:00.405Z,-7.71
2018-02-27T08:11:10.187Z,-7.62
2018-02-27T08:12:20.181Z,-7.57
2018-02-27T08:13:30.172Z,-7.62
2018-02-27T08:14:39.893Z,-7.62
2018-02-27T08:15:49.880Z,-7.67
2018-02-27T08:16:59.605Z,-7.62
2018-02-27T08:18:09.592Z,-7.71
2018-02-27T08:19:19.581Z,-7.71
2018-02-27T08:20:29.725Z,-7.6
2018-02-27T08:21:39.725Z,-7.6
2018-02-27T08:22:49.440Z,-7.57
2018-02-27T08:23:59.156Z,-7.59
2018-02-27T08:25:09.241Z,-7.71
2018-02-27T08:26:18.424Z,-7.78
2018-02-27T08:27:28.408Z,-7.66
2018-02-27T08:28:38.474Z,-7.73
2018-02-27T08:29:48.517Z,-7.84
2018-02-27T08:30:58.570Z,-7.89
2018-02-27T08:32:08.567Z,-7.91
2018-02-27T08:33:18.284Z,-7.99
2018-02-27T08:34:28.269Z,-8.05
2018-02-27T08:35:37.723Z,-8.05
2018-02-27T08:36:47.446Z,-8.07
2018-02-27T08:37:56.912Z,-7.99
2018-02-27T08:39:06.642Z,-7.94
2018-02-27T08:40:16.096Z,-7.91
2018-02-27T08:41:26.089Z,-7.94
2018-02-27T08:42:35.807Z,-8.08
2018-02-27T08:43:45.829Z,-8.13
2018-02-27T08:44:55.810Z,-8.17
2018-02-27T08:46:05.270Z,-8.15
2018-02-27T08:47:14.726Z,-8.24
2018-02-27T08:48:24.715Z,-8.15
2018-02-27T08:49:34.708Z,-8.02
2018-02-27T08:50:44.696Z,-8.02
2018-02-27T08:51:54.689Z,-7.94
2018-02-27T08:53:04.404Z,-7.94
2018-02-27T08:54:14.395Z,-7.85
2018-02-27T08:55:24.115Z,-7.81
2018-02-27T08:56:33.866Z,-7.83
2018-02-27T08:57:43.588Z,-7.71
2018-02-27T08:58:53.582Z,-7.7
2018-02-27T09:00:03.298Z,-7.67
2018-02-27T09:01:13.020Z,-7.81
2018-02-27T09:02:22.745Z,-7.59
2018-02-27T09:03:32.468Z,-7.55
2018-02-27T09:04:42.191Z,-7.66
2018-02-27T09:05:51.917Z,-7.63
2018-02-27T09:07:01.906Z,-7.57
2018-02-27T09:08:12.000Z,-7.56
2018-02-27T09:09:21.989Z,-7.45
2018-02-27T09:10:31.714Z,-7.38
2018-02-27T09:11:41.701Z,-7.28
2018-02-27T09:12:51.701Z,-7.35
2018-02-27T09:14:01.684Z,-7.23
2018-02-27T09:15:11.739Z,-7.23
2018-02-27T09:16:21.466Z,-7.35
2018-02-27T09:17:31.479Z,-7.25
2018-02-27T09:18:41.209Z,-7.28
2018-02-27T09:19:50.399Z,-7.24
2018-02-27T09:20:59.853Z,-7.24
2018-02-27T09:22:09.306Z,-7.17
2018-02-27T09:23:19.301Z,-7.32
2018-02-27T09:24:29.293Z,-7.21
2018-02-27T09:25:39.400Z,-7.21
2018-02-27T09:26:49.123Z,-7.27
2018-02-27T09:27:58.874Z,-7.3
2018-02-27T09:29:08.873Z,-7.3
2018-02-27T09:30:18.863Z,-7.24
2018-02-27T09:31:28.311Z,-7.24
2018-02-27T09:32:38.029Z,-7.2
2018-02-27T09:33:48.019Z,-7.34
2018-02-27T09:34:58.172Z,-7.27
2018-02-27T09:36:07.396Z,-7.36
2018-02-27T09:37:17.113Z,-7.34
2018-02-27T09:38:27.193Z,-7.36
2018-02-27T09:39:37.273Z,-7.42
2018-02-27T09:40:47.046Z,-7.35
2018-02-27T09:41:56.519Z,-7.39
2018-02-27T09:43:06.240Z,-7.39
2018-02-27T09:44:15.958Z,-7.35
2018-02-27T09:45:25.949Z,-7.27
2018-02-27T09:46:35.679Z,-7.34
2018-02-27T09:47:45.407Z,-7.25
2018-02-27T09:48:55.398Z,-7.18
2018-02-27T09:50:05.389Z,-7.13
2018-02-27T09:51:14.845Z,-7.07
2018-02-27T09:52:24.298Z,-6.95
2018-02-27T09:53:34.285Z,-6.78
2018-02-27T09:54:44.286Z,-6.73
2018-02-27T09:55:54.005Z,-6.58
2018-02-27T09:57:04.000Z,-6.49
2018-02-27T09:58:13.994Z,-6.28
2018-02-27T09:59:23.996Z,-6.27
2018-02-27T10:00:33.716Z,-6.03
2018-02-27T10:01:43.736Z,-5.95
2018-02-27T10:02:53.197Z,-5.84
2018-02-27T10:04:03.196Z,-5.68
2018-02-27T10:05:12.919Z,-5.52
2018-02-27T10:06:22.650Z,-5.41
2018-02-27T10:07:32.644Z,-5.25
2018-02-27T10:08:42.638Z,-5.16
2018-02-27T10:09:52.357Z,-4.91
2018-02-27T10:11:02.103Z,-4.9
2018-02-27T10:12:11.871Z,-4.95
2018-02-27T10:13:21.864Z,-4.97
2018-02-27T10:14:31.604Z,-4.97
2018-02-27T10:15:41.592Z,-5.25
2018-02-27T10:16:51.314Z,-5.19
2018-02-27T10:18:01.326Z,-5.01
2018-02-27T10:19:10.777Z,-4.88
2018-02-27T10:20:20.507Z,-5.09
2018-02-27T10:21:30.493Z,-4.95
2018-02-27T10:22:40.488Z,-4.76
2018-02-27T10:23:49.949Z,-4.79
2018-02-27T10:24:59.674Z,-4.9
2018-02-27T10:26:09.663Z,-4.83
2018-02-27T10:27:19.486Z,-4.56
2018-02-27T10:28:29.211Z,-4.58
2018-02-27T10:29:38.929Z,-4.56
2018-02-27T10:30:49.071Z,-4.77
2018-02-27T10:31:59.107Z,-4.42
2018-02-27T10:33:08.830Z,-4.38
2018-02-27T10:34:18.562Z,-4.58
2018-02-27T10:35:28.294Z,-4.88
2018-02-27T10:36:38.341Z,-5.08
2018-02-27T10:37:48.329Z,-5.28
2018-02-27T10:38:57.790Z,-5.39
2018-02-27T10:40:07.253Z,-5.45
2018-02-27T10:41:17.244Z,-5.34
2018-02-27T10:42:27.240Z,-5.53
2018-02-27T10:43:37.234Z,-5.53
2018-02-27T10:44:47.218Z,-5.5
2018-02-27T10:45:57.205Z,-5.45
2018-02-27T10:47:06.931Z,-5.49
2018-02-27T10:48:16.672Z,-5.48
2018-02-27T10:49:26.666Z,-5.5
2018-02-27T10:50:36.756Z,-5.63
2018-02-27T10:51:46.484Z,-5.67
2018-02-27T10:52:56.208Z,-5.78
2018-02-27T10:54:06.195Z,-5.6
2018-02-27T10:55:15.653Z,-5.53
2018-02-27T10:56:25.110Z,-5.46
2018-02-27T10:57:35.100Z,-5.59
2018-02-27T10:58:45.089Z,-5.59
2018-02-27T10:59:54.542Z,-5.48
2018-02-27T11:01:04.259Z,-5.41
2018-02-27T11:02:14.248Z,-5.3
2018-02-27T11:03:24.235Z,-5.3
2018-02-27T11:04:33.960Z,-5.23
2018-02-27T11:05:43.681Z,-5.3
2018-02-27T11:06:53.410Z,-5.31
2018-02-27T11:08:03.233Z,-5.37
2018-02-27T11:09:12.687Z,-5.25
2018-02-27T11:10:22.184Z,-5.1
2018-02-27T11:11:32.172Z,-5.13
2018-02-27T11:12:42.165Z,-5.02
2018-02-27T11:13:51.900Z,-5.08
2018-02-27T11:15:01.098Z,-5.1
2018-02-27T11:16:10.876Z,-5.12
2018-02-27T11:17:20.874Z,-4.98
2018-02-27T11:18:30.863Z,-4.87
2018-02-27T11:19:40.846Z,-4.7
2018-02-27T11:20:50.838Z,-4.76
2018-02-27T11:22:00.827Z,-4.83
2018-02-27T11:23:10.812Z,-4.92
2018-02-27T11:24:20.543Z,-5.1
2018-02-27T11:25:30.538Z,-5.28
2018-02-27T11:26:40.262Z,-5.27
2018-02-27T11:27:49.983Z,-5.23
2018-02-27T11:28:59.703Z,-5.39
2018-02-27T11:30:09.434Z,-5.6
2018-02-27T11:31:19.164Z,-5.6
2018-02-27T11:32:28.886Z,-5.71
2018-02-27T11:33:38.614Z,-5.76
2018-02-27T11:34:48.345Z,-5.74
2018-02-27T11:35:58.340Z,-5.7
2018-02-27T11:37:08.069Z,-5.66
2018-02-27T11:38:17.789Z,-5.77
2018-02-27T11:39:27.528Z,-5.78
2018-02-27T11:40:37.515Z,-5.85
2018-02-27T11:41:47.236Z,-5.71
2018-02-27T11:42:57.053Z,-5.67
2018-02-27T11:44:07.043Z,-5.68
2018-02-27T11:45:17.040Z,-5.71
2018-02-27T11:46:27.038Z,-5.78
2018-02-27T11:47:36.762Z,-5.81
2018-02-27T11:48:46.214Z,-5.92
2018-02-27T11:49:55.933Z,-5.95
2018-02-27T11:51:05.135Z,-6.06
2018-02-27T11:52:15.129Z,-6.15
2018-02-27T11:53:24.858Z,-6.02
2018-02-27T11:54:34.851Z,-5.97
2018-02-27T11:55:44.844Z,-5.77
2018-02-27T11:56:54.844Z,-5.6
2018-02-27T11:58:04.835Z,-5.41
2018-02-27T11:59:14.822Z,-5.28
2018-02-27T12:00:25.167Z,-5.25
2018-02-27T12:01:34.893Z,-5.28
2018-02-27T12:02:44.979Z,-5.31
2018-02-27T12:03:54.980Z,-5.28
2018-02-27T12:05:04.438Z,-5.41
2018-02-27T12:06:14.436Z,-5.38
2018-02-27T12:07:24.458Z,-5.46
2018-02-27T12:08:34.456Z,-5.46
2018-02-27T12:09:44.468Z,-5.41
2018-02-27T12:10:54.455Z,-5.48
2018-02-27T12:12:04.451Z,-5.28
2018-02-27T12:13:14.174Z,-4.94
2018-02-27T12:14:24.161Z,-4.4
2018-02-27T12:15:34.156Z,-3.53
2018-02-27T12:16:43.888Z,-2.84
2018-02-27T12:17:53.081Z,-2.2
2018-02-27T12:19:02.821Z,-1.51
2018-02-27T12:20:12.283Z,-0.96
2018-02-27T12:21:22.014Z,-0.48
2018-02-27T12:22:32.012Z,-0.02
2018-02-27T12:23:41.734Z,0.09
2018-02-27T12:24:51.726Z,0.3
2018-02-27T12:26:01.455Z,0.56
2018-02-27T12:27:11.194Z,0.81
2018-02-27T12:28:21.193Z,1.03
2018-02-27T12:29:30.930Z,1.06
2018-02-27T12:30:40.448Z,1.6
2018-02-27T12:31:50.457Z,2.07
2018-02-27T12:32:59.653Z,2.28
2018-02-27T12:34:09.652Z,2.57
2018-02-27T12:35:19.652Z,2.97
2018-02-27T12:36:29.391Z,3.3
2018-02-27T12:37:39.403Z,3.76
2018-02-27T12:38:49.403Z,4.1
2018-02-27T12:39:59.133Z,4.38
2018-02-27T12:41:08.597Z,4.5
2018-02-27T12:42:18.604Z,4.2
2018-02-27T12:43:28.623Z,3.89
2018-02-27T12:44:39.160Z,3.66
2018-02-27T12:45:49.158Z,3.68
2018-02-27T12:46:58.993Z,3.74
2018-02-27T12:48:09.065Z,4.06
2018-02-27T12:49:18.534Z,3.78
2018-02-27T12:50:28.277Z,3.15
2018-02-27T12:51:38.276Z,2.7
2018-02-27T12:52:48.104Z,2.55
2018-02-27T12:53:58.197Z,1.78
2018-02-27T12:55:07.938Z,1.21
2018-02-27T12:56:17.669Z,0.81
2018-02-27T12:57:27.674Z,0
2018-02-27T12:58:37.726Z,-0.44
2018-02-27T12:59:47.722Z,-0.6
2018-02-27T13:00:57.722Z,-0.94
2018-02-27T13:02:07.461Z,-1.35
2018-02-27T13:03:17.469Z,-1.43
2018-02-27T13:04:26.924Z,-1.71
2018-02-27T13:05:36.384Z,-2.05
2018-02-27T13:06:46.113Z,-2.4
2018-02-27T13:07:56.115Z,-2.54
2018-02-27T13:09:05.840Z,-2.76
2018-02-27T13:10:15.615Z,-2.9
2018-02-27T13:11:25.626Z,-3.15
2018-02-27T13:12:35.619Z,-3.36
2018-02-27T13:13:45.347Z,-3.56
2018-02-27T13:14:55.075Z,-3.61
2018-02-27T13:16:04.798Z,-3.68
2018-02-27T13:17:14.793Z,-3.81
2018-02-27T13:18:24.782Z,-3.77
2018-02-27T13:19:34.242Z,-3.68
2018-02-27T13:20:43.993Z,-3.91
2018-02-27T13:21:53.718Z,-3.84
2018-02-27T13:23:03.448Z,-3.94
2018-02-27T13:24:13.166Z,-3.66
2018-02-27T13:25:22.902Z,-3.8
2018-02-27T13:26:33.031Z,-3.85
2018-02-27T13:27:42.376Z,-3.88
2018-02-27T13:28:52.368Z,-4.01
2018-02-27T13:30:02.364Z,-4.14
2018-02-27T13:31:12.095Z,-4.14
2018-02-27T13:32:21.553Z,-4.01
2018-02-27T13:33:31.547Z,-3.84
2018-02-27T13:34:41.534Z,-3.61
2018-02-27T13:35:51.530Z,-3.44
2018-02-27T13:37:01.522Z,-3.27
2018-02-27T13:38:11.511Z,-3.09
2018-02-27T13:39:21.235Z,-2.94
2018-02-27T13:40:31.228Z,-2.94
2018-02-27T13:41:40.951Z,-3.09
2018-02-27T13:42:50.990Z,-3.44
2018-02-27T13:44:01.074Z,-3.68
2018-02-27T13:45:10.905Z,-3.85
2018-02-27T13:46:20.647Z,-4.08
2018-02-27T13:47:30.371Z,-4.35
2018-02-27T13:48:50.889Z,-4.58
2018-02-27T13:50:00.880Z,-4.81
2018-02-27T13:51:10.339Z,-5.12
2018-02-27T13:52:20.279Z,-5.32
2018-02-27T13:53:30.499Z,-5.59
2018-02-27T13:54:40.493Z,-5.74
2018-02-27T13:55:50.491Z,-5.89
2018-02-27T13:56:59.949Z,-6
2018-02-27T13:58:09.952Z,-6.12
2018-02-27T13:59:19.959Z,-6.31
2018-02-27T14:00:29.954Z,-6.3
2018-02-27T14:01:39.687Z,-6.24
2018-02-27T14:02:49.690Z,-6.34
2018-02-27T14:03:59.680Z,-6.33
2018-02-27T14:05:09.673Z,-6.39
2018-02-27T14:06:19.664Z,-6.34
2018-02-27T14:07:29.654Z,-6.34
2018-02-27T14:08:39.115Z,-6.49
2018-02-27T14:09:48.575Z,-6.76
2018-02-27T14:10:58.579Z,-6.79
2018-02-27T14:12:08.570Z,-6.81
2018-02-27T14:13:18.291Z,-6.91
2018-02-27T14:14:28.286Z,-7
2018-02-27T14:15:38.011Z,-7.09
2018-02-27T14:16:48.005Z,-7.14
2018-02-27T14:17:57.739Z,-7.25
2018-02-27T14:19:07.208Z,-7.41
2018-02-27T14:20:17.203Z,-7.38
2018-02-27T14:21:26.654Z,-7.25
2018-02-27T14:22:36.648Z,-7.1
2018-02-27T14:23:46.638Z,-7.2
2018-02-27T14:24:56.362Z,-7.25
2018-02-27T14:26:06.085Z,-7.17
2018-02-27T14:27:16.079Z,-7.32
2018-02-27T14:28:25.800Z,-7.36
2018-02-27T14:29:35.523Z,-7.45
2018-02-27T14:30:45.512Z,-7.48
2018-02-27T14:31:55.595Z,-7.34
2018-02-27T14:33:05.320Z,-7.06
2018-02-27T14:34:15.040Z,-6.86
2018-02-27T14:35:24.494Z,-6.91
2018-02-27T14:36:34.218Z,-6.84
2018-02-27T14:37:44.212Z,-6.71
2018-02-27T14:38:53.937Z,-6.45
2018-02-27T14:40:03.660Z,-6.36
2018-02-27T14:41:13.114Z,-6.36
2018-02-27T14:42:23.101Z,-6.3
2018-02-27T14:43:32.567Z,-6.23
2018-02-27T14:44:42.288Z,-6.31
2018-02-27T14:45:52.281Z,-6.34
2018-02-27T14:47:02.268Z,-6.51
2018-02-27T14:48:12.261Z,-6.56
2018-02-27T14:49:22.254Z,-6.31
2018-02-27T14:50:32.260Z,-6.27
2018-02-27T14:51:42.249Z,-6.13
2018-02-27T14:52:52.237Z,-6.05
2018-02-27T14:54:01.964Z,-6.1
2018-02-27T14:55:11.957Z,-6.15
2018-02-27T14:56:21.944Z,-6.1
2018-02-27T14:57:31.947Z,-6.34
2018-02-27T14:58:41.937Z,-6.46
2018-02-27T14:59:51.653Z,-6.71
2018-02-27T15:01:01.656Z,-6.85
2018-02-27T15:02:11.697Z,-7.06
2018-02-27T15:03:21.686Z,-7.05
2018-02-27T15:04:31.399Z,-7.05
2018-02-27T15:05:41.132Z,-7.06
2018-02-27T15:06:51.133Z,-7.1